createdAt,value
2023-03-27T00:00:16.503Z,7.56
2023-03-27T00:02:43.987Z,7.50
2023-03-27T00:05:11.100Z,7.51
2023-03-27T00:07:41.374Z,7.48
2023-03-27T00:10:12.887Z,7.72
2023-03-27T00:12:39.874Z,7.90
2023-03-27T00:15:08.024Z,8.01
2023-03-27T00:17:35.178Z,7.94
2023-03-27T00:20:05.600Z,7.82
2023-03-27T00:22:32.648Z,7.43
2023-03-27T00:24:59.811Z,7.35
2023-03-27T00:27:26.779Z,7.74
2023-03-27T00:29:54.104Z,7.80
2023-03-27T00:32:21.189Z,7.89
2023-03-27T00:34:48.139Z,7.49
2023-03-27T00:37:16.405Z,7.46
2023-03-27T00:39:43.910Z,7.53
2023-03-27T00:42:15.093Z,7.56
2023-03-27T00:44:42.664Z,7.61
2023-03-27T00:47:12.916Z,7.67
2023-03-27T00:50:48.788Z,7.62
2023-03-27T00:53:21.332Z,7.48
2023-03-27T00:55:51.632Z,7.55
2023-03-27T00:58:28.811Z,7.90
2023-03-27T01:00:57.512Z,8.02
2023-03-27T01:03:27.832Z,8.03
2023-03-27T01:05:57.834Z,8.05
2023-03-27T01:08:27.429Z,8.46
2023-03-27T01:11:26.599Z,8.14
2023-03-27T01:14:33.159Z,7.81
2023-03-27T01:17:26.466Z,7.69
2023-03-27T01:20:21.177Z,7.58
2023-03-27T01:23:35.961Z,7.61
2023-03-27T01:26:36.195Z,7.44
2023-03-27T01:29:25.342Z,7.16
2023-03-27T01:32:14.363Z,7.18
2023-03-27T01:35:01.297Z,7.49
2023-03-27T01:37:51.780Z,7.73
2023-03-27T01:40:47.706Z,7.73
2023-03-27T01:43:22.808Z,7.67
2023-03-27T01:46:26.070Z,8.10
2023-03-27T01:48:59.479Z,7.83
2023-03-27T01:51:39.792Z,8.04
2023-03-27T01:54:35.925Z,8.29
2023-03-27T01:57:24.924Z,8.33
2023-03-27T02:00:17.486Z,8.20
2023-03-27T02:02:51.750Z,8.37
2023-03-27T02:05:28.226Z,8.25
2023-03-27T02:07:59.790Z,8.06
2023-03-27T02:10:34.150Z,8.20
2023-03-27T02:13:18.535Z,8.41
2023-03-27T02:15:49.317Z,8.30
2023-03-27T02:18:29.155Z,8.12
2023-03-27T02:20:56.464Z,8.23
2023-03-27T02:23:23.676Z,8.19
2023-03-27T02:25:54.368Z,8.29
2023-03-27T02:28:42.972Z,8.49
2023-03-27T02:31:35.168Z,8.73
2023-03-27T02:34:06.080Z,8.38
2023-03-27T02:36:55.106Z,8.26
2023-03-27T02:39:49.894Z,7.95
2023-03-27T02:42:30.953Z,7.96
2023-03-27T02:45:15.929Z,8.06
2023-03-27T02:47:52.052Z,8.47
2023-03-27T02:50:25.549Z,8.37
2023-03-27T02:53:00.331Z,8.66
2023-03-27T02:55:36.130Z,8.75
2023-03-27T03:01:55.379Z,8.68
2023-03-27T03:04:31.492Z,8.50
2023-03-27T03:07:11.602Z,8.51
2023-03-27T03:09:41.305Z,8.63
2023-03-27T03:12:09.485Z,8.98
2023-03-27T03:14:44.348Z,9.22
2023-03-27T03:17:12.999Z,9.10
2023-03-27T03:19:40.315Z,8.09
2023-03-27T03:22:08.560Z,8.58
2023-03-27T03:24:37.554Z,8.94
2023-03-27T03:27:05.791Z,9.19
2023-03-27T03:29:43.861Z,8.65
2023-03-27T03:32:16.178Z,8.86
2023-03-27T03:34:48.105Z,9.38
2023-03-27T03:37:15.988Z,9.56
2023-03-27T03:39:43.106Z,9.54
2023-03-27T03:42:22.785Z,9.57
2023-03-27T03:44:52.308Z,9.88
2023-03-27T03:48:30.114Z,10.08
2023-03-27T03:50:57.546Z,10.06
2023-03-27T03:53:24.881Z,10.05
2023-03-27T03:55:53.443Z,10.07
2023-03-27T03:58:20.828Z,10.11
2023-03-27T04:01:04.823Z,10.06
2023-03-27T04:03:39.279Z,9.97
2023-03-27T04:06:08.074Z,9.92
2023-03-27T04:08:35.446Z,9.85
2023-03-27T04:11:02.574Z,9.99
2023-03-27T04:14:02.025Z,10.07
2023-03-27T04:16:35.188Z,10.02
2023-03-27T04:19:10.558Z,9.91
2023-03-27T04:21:42.406Z,9.74
2023-03-27T04:24:14.206Z,9.65
2023-03-27T04:26:48.090Z,9.41
2023-03-27T04:29:15.050Z,9.24
2023-03-27T04:32:00.550Z,8.99
2023-03-27T04:34:40.661Z,8.86
2023-03-27T04:37:14.719Z,8.77
2023-03-27T04:39:54.121Z,8.69
2023-03-27T04:42:23.933Z,8.70
2023-03-27T04:44:52.738Z,8.63
2023-03-27T04:47:20.566Z,8.75
2023-03-27T04:49:51.276Z,8.68
2023-03-27T04:52:22.693Z,9.03
2023-03-27T04:54:49.945Z,8.98
2023-03-27T04:57:19.373Z,9.24
2023-03-27T04:59:49.160Z,9.32
2023-03-27T05:02:34.624Z,9.45
2023-03-27T05:05:23.440Z,9.50
2023-03-27T05:07:52.040Z,9.61
2023-03-27T05:10:22.542Z,9.67
2023-03-27T05:12:52.981Z,9.66
2023-03-27T05:15:21.174Z,9.91
2023-03-27T05:17:53.379Z,10.03
2023-03-27T05:20:23.735Z,10.43
2023-03-27T05:22:55.391Z,10.59
2023-03-27T05:25:27.344Z,10.68
2023-03-27T05:27:55.383Z,10.85
2023-03-27T05:30:27.028Z,10.86
2023-03-27T05:33:29.395Z,11.11
2023-03-27T05:35:58.556Z,11.14
2023-03-27T05:38:26.451Z,11.33
2023-03-27T05:41:42.481Z,11.25
2023-03-27T05:44:09.851Z,11.10
2023-03-27T05:46:42.768Z,11.15
2023-03-27T05:49:22.525Z,11.26
2023-03-27T05:51:55.348Z,11.27
2023-03-27T05:54:22.500Z,11.38
2023-03-27T05:57:08.895Z,11.33
2023-03-27T05:59:37.943Z,11.30
2023-03-27T06:02:21.076Z,11.30
2023-03-27T06:04:56.108Z,11.38
2023-03-27T06:07:32.503Z,11.37
2023-03-27T06:10:13.157Z,11.54
2023-03-27T06:12:48.664Z,11.44
2023-03-27T06:15:26.534Z,11.51
2023-03-27T06:18:14.831Z,11.43
2023-03-27T06:20:42.832Z,11.48
2023-03-27T06:23:10.015Z,11.62
2023-03-27T06:25:39.449Z,11.76
2023-03-27T06:28:09.649Z,11.82
2023-03-27T06:30:44.115Z,11.72
2023-03-27T06:33:43.811Z,11.88
2023-03-27T06:36:25.227Z,12.19
2023-03-27T06:38:54.479Z,12.26
2023-03-27T06:41:21.936Z,12.22
2023-03-27T06:44:07.636Z,12.17
2023-03-27T06:46:47.771Z,12.18
2023-03-27T06:49:21.450Z,12.46
2023-03-27T06:51:48.737Z,12.68
2023-03-27T06:54:16.572Z,12.69
2023-03-27T06:56:50.726Z,12.78
2023-03-27T06:59:22.174Z,12.97
2023-03-27T07:01:55.121Z,13.14
2023-03-27T07:04:25.358Z,13.19
2023-03-27T07:07:06.232Z,13.54
2023-03-27T07:09:39.715Z,13.32
2023-03-27T07:12:11.970Z,13.57
2023-03-27T07:14:41.603Z,13.72
2023-03-27T07:17:09.615Z,13.80
2023-03-27T07:20:04.059Z,14.22
2023-03-27T07:22:31.357Z,14.42
2023-03-27T07:25:05.274Z,14.51
2023-03-27T07:27:39.829Z,14.90
2023-03-27T07:30:09.293Z,14.90
2023-03-27T07:32:37.880Z,14.95
2023-03-27T07:35:08.697Z,14.77
2023-03-27T07:37:56.200Z,14.40
2023-03-27T07:40:50.442Z,14.40
2023-03-27T07:43:29.498Z,14.58
2023-03-27T07:45:58.263Z,14.64
2023-03-27T07:48:27.948Z,14.54
2023-03-27T07:51:10.685Z,14.72
2023-03-27T07:53:41.779Z,14.78
2023-03-27T07:56:35.934Z,15.08
2023-03-27T07:59:21.560Z,14.84
2023-03-27T08:01:52.164Z,14.92
2023-03-27T08:04:21.335Z,15.20
2023-03-27T08:07:08.023Z,15.06
2023-03-27T08:09:37.038Z,15.08
2023-03-27T08:12:07.809Z,14.92
2023-03-27T08:14:40.329Z,15.21
2023-03-27T08:17:18.160Z,15.24
2023-03-27T08:19:48.128Z,15.35
2023-03-27T08:22:16.837Z,15.28
2023-03-27T08:25:08.413Z,15.49
2023-03-27T08:27:35.947Z,15.15
2023-03-27T08:30:04.658Z,15.28
2023-03-27T08:32:35.035Z,15.20
2023-03-27T08:35:07.963Z,15.12
2023-03-27T08:37:35.751Z,15.14
2023-03-27T08:40:28.673Z,15.55
2023-03-27T08:43:23.201Z,15.63
2023-03-27T08:46:05.828Z,16.01
2023-03-27T08:48:43.359Z,15.77
2023-03-27T08:51:19.946Z,15.84
2023-03-27T08:53:54.919Z,15.86
2023-03-27T08:56:27.834Z,15.91
2023-03-27T08:58:55.682Z,15.81
2023-03-27T09:01:36.786Z,15.47
2023-03-27T09:04:36.355Z,15.48
2023-03-27T09:07:15.773Z,15.34
2023-03-27T09:10:09.573Z,15.22
2023-03-27T09:13:04.988Z,16.14
2023-03-27T09:15:43.614Z,16.30
2023-03-27T09:18:47.590Z,16.56
2023-03-27T09:21:38.052Z,17.12
2023-03-27T09:24:18.936Z,17.60
2023-03-27T09:27:18.518Z,17.32
2023-03-27T09:30:16.286Z,16.77
2023-03-27T09:33:13.854Z,16.31
2023-03-27T09:35:44.281Z,16.22
2023-03-27T09:38:35.903Z,15.90
2023-03-27T09:41:11.007Z,16.08
2023-03-27T09:43:49.652Z,16.30
2023-03-27T10:17:07.407Z,15.99
2023-03-27T10:20:00.587Z,16.40
2023-03-27T10:22:31.574Z,16.95
2023-03-27T10:25:01.688Z,17.32
2023-03-27T10:28:13.963Z,17.45
2023-03-27T10:31:28.411Z,16.86
2023-03-27T10:34:29.260Z,16.66
2023-03-27T10:37:31.925Z,16.76
2023-03-27T10:40:24.110Z,17.10
2023-03-27T10:43:01.154Z,16.86
2023-03-27T10:45:28.839Z,16.94
2023-03-27T10:48:02.162Z,16.72
2023-03-27T10:50:44.375Z,15.87
2023-03-27T10:53:33.291Z,15.87
2023-03-27T10:56:16.574Z,15.78
2023-03-27T10:58:52.225Z,16.03
2023-03-27T11:01:28.937Z,16.10
2023-03-27T11:04:00.484Z,16.55
2023-03-27T11:06:33.517Z,16.63
2023-03-27T11:09:05.961Z,16.49
2023-03-27T11:11:46.791Z,16.63
2023-03-27T11:14:44.379Z,17.03
2023-03-27T11:17:21.023Z,17.14
2023-03-27T11:20:44.370Z,16.96
2023-03-27T11:23:24.746Z,16.81
2023-03-27T11:26:13.031Z,16.76
2023-03-27T11:29:09.445Z,16.53
2023-03-27T11:31:57.366Z,16.48
2023-03-27T11:34:54.087Z,16.53
2023-03-27T11:37:57.328Z,16.55
2023-03-27T11:40:43.045Z,16.30
2023-03-27T11:43:13.044Z,16.48
2023-03-27T11:45:44.994Z,16.44
2023-03-27T11:48:36.478Z,16.56
2023-03-27T11:51:16.476Z,16.57
2023-03-27T11:54:04.898Z,16.21
2023-03-27T11:56:54.629Z,15.91
2023-03-27T12:00:02.423Z,15.07
2023-03-27T12:03:02.659Z,14.65
2023-03-27T12:05:49.247Z,14.34
2023-03-27T12:08:21.858Z,13.97
2023-03-27T12:10:54.137Z,14.35
2023-03-27T12:13:55.026Z,13.14
2023-03-27T12:16:37.545Z,13.42
2023-03-27T12:19:46.190Z,13.45
2023-03-27T12:22:35.904Z,13.87
2023-03-27T12:25:50.192Z,14.40
2023-03-27T12:29:23.461Z,14.68
2023-03-27T12:32:12.856Z,14.72
2023-03-27T12:34:53.564Z,15.16
2023-03-27T12:37:32.442Z,15.45
2023-03-27T12:40:01.520Z,15.60
2023-03-27T12:43:24.566Z,15.95
2023-03-27T12:46:29.119Z,15.80
2023-03-27T12:48:57.910Z,15.96
2023-03-27T12:51:39.663Z,16.12
2023-03-27T12:54:31.904Z,16.15
2023-03-27T12:57:17.216Z,15.79
2023-03-27T12:59:47.087Z,15.76
2023-03-27T13:02:42.101Z,15.64
2023-03-27T13:05:26.902Z,15.57
2023-03-27T13:08:29.661Z,15.19
2023-03-27T13:11:37.332Z,14.70
2023-03-27T13:14:57.862Z,14.55
2023-03-27T13:17:41.729Z,14.47
2023-03-27T13:20:10.013Z,14.55
2023-03-27T13:23:03.477Z,14.51
2023-03-27T13:25:46.199Z,14.22
2023-03-27T13:28:25.297Z,14.22
2023-03-27T13:31:02.047Z,14.34
2023-03-27T13:34:07.690Z,14.35
2023-03-27T13:36:35.448Z,14.20
2023-03-27T13:39:06.706Z,14.05
2023-03-27T13:41:45.931Z,14.18
2023-03-27T13:44:56.883Z,14.09
2023-03-27T13:47:33.676Z,14.08
2023-03-27T13:50:19.367Z,14.04
2023-03-27T13:53:16.808Z,14.00
2023-03-27T13:56:43.948Z,13.91
2023-03-27T13:59:43.451Z,14.04
2023-03-27T14:02:55.689Z,13.94
2023-03-27T14:05:46.515Z,13.78
2023-03-27T14:08:40.056Z,13.69
2023-03-27T14:12:11.819Z,14.01
2023-03-27T14:15:16.731Z,13.88
2023-03-27T14:18:10.534Z,13.82
2023-03-27T14:20:45.456Z,13.76
2023-03-27T14:23:24.091Z,13.83
2023-03-27T14:26:05.977Z,13.74
2023-03-27T14:28:59.224Z,13.52
2023-03-27T14:31:35.511Z,13.05
2023-03-27T14:34:12.415Z,12.94
2023-03-27T14:36:42.568Z,12.97
2023-03-27T14:39:31.444Z,13.11
2023-03-27T14:42:17.241Z,12.93
2023-03-27T14:44:48.156Z,12.89
2023-03-27T14:47:18.617Z,12.89
2023-03-27T14:49:50.893Z,12.96
2023-03-27T14:52:35.437Z,12.93
2023-03-27T14:55:22.975Z,12.73
2023-03-27T14:58:11.283Z,12.04
2023-03-27T15:00:41.652Z,12.27
2023-03-27T15:03:16.634Z,12.33
2023-03-27T15:06:02.265Z,12.43
2023-03-27T15:08:37.271Z,12.43
2023-03-27T15:11:39.202Z,12.31
2023-03-27T15:14:18.744Z,12.11
2023-03-27T15:16:58.393Z,12.21
2023-03-27T15:19:32.614Z,11.96
2023-03-27T15:22:07.572Z,11.94
2023-03-27T15:24:43.593Z,11.80
2023-03-27T15:27:25.831Z,11.43
2023-03-27T15:30:25.668Z,11.63
2023-03-27T15:32:56.463Z,11.52
2023-03-27T15:35:40.514Z,11.76
2023-03-27T15:38:11.689Z,11.65
2023-03-27T15:40:43.142Z,11.33
2023-03-27T15:43:13.393Z,11.20
2023-03-27T15:45:47.837Z,11.15
2023-03-27T15:48:23.315Z,11.29
2023-03-27T15:51:01.722Z,11.38
2023-03-27T15:53:34.447Z,11.34
2023-03-27T15:56:07.723Z,11.03
2023-03-27T15:58:48.769Z,10.91
2023-03-27T16:01:20.286Z,11.04
2023-03-27T16:03:48.538Z,10.81
2023-03-27T16:06:26.864Z,10.93
2023-03-27T16:08:55.131Z,10.86
2023-03-27T16:11:49.509Z,10.79
2023-03-27T16:14:33.146Z,11.01
2023-03-27T16:17:10.043Z,10.94
2023-03-27T16:20:07.817Z,10.82
2023-03-27T16:22:37.450Z,10.81
2023-03-27T16:25:09.925Z,10.82
2023-03-27T16:27:58.658Z,10.85
2023-03-27T16:30:32.198Z,10.59
2023-03-27T16:33:00.592Z,10.73
2023-03-27T16:35:32.626Z,10.70
2023-03-27T16:38:00.218Z,10.64
2023-03-27T16:40:27.584Z,10.80
2023-03-27T16:42:54.642Z,10.74
2023-03-27T16:45:21.727Z,10.72
2023-03-27T16:47:53.150Z,10.71
2023-03-27T16:50:24.726Z,10.45
2023-03-27T16:52:51.756Z,10.76
2023-03-27T16:55:19.130Z,10.99
2023-03-27T16:57:49.212Z,10.89
2023-03-27T17:00:16.755Z,10.83
2023-03-27T17:02:44.685Z,10.67
2023-03-27T17:05:12.103Z,10.71
2023-03-27T17:07:41.919Z,10.80
2023-03-27T17:10:10.515Z,10.72
2023-03-27T17:12:38.134Z,10.11
2023-03-27T17:15:05.957Z,10.47
2023-03-27T17:17:33.229Z,10.49
2023-03-27T17:20:00.862Z,10.59
2023-03-27T17:22:30.088Z,10.66
2023-03-27T17:24:58.039Z,10.61
2023-03-27T17:27:28.492Z,10.55
2023-03-27T17:29:58.586Z,10.54
2023-03-27T17:32:27.075Z,10.67
2023-03-27T17:34:54.441Z,10.82
2023-03-27T17:37:22.121Z,11.03
2023-03-27T17:39:49.463Z,11.01
2023-03-27T17:42:16.630Z,11.10
2023-03-27T17:44:45.249Z,11.14
2023-03-27T17:47:13.362Z,11.22
2023-03-27T17:49:41.208Z,11.42
2023-03-27T17:52:11.401Z,11.40
2023-03-27T17:54:39.010Z,11.11
2023-03-27T17:57:06.470Z,11.10
2023-03-27T17:59:33.734Z,11.25
2023-03-27T18:02:01.286Z,11.64
2023-03-27T18:04:29.164Z,10.76
2023-03-27T18:06:56.261Z,10.32
2023-03-27T18:09:23.362Z,10.34
2023-03-27T18:11:50.897Z,10.49
2023-03-27T18:14:18.012Z,10.55
2023-03-27T18:16:45.142Z,10.30
2023-03-27T18:19:13.522Z,10.15
2023-03-27T18:21:40.771Z,9.94
2023-03-27T18:24:08.295Z,9.80
2023-03-27T18:26:35.337Z,9.70
2023-03-27T18:29:02.713Z,9.62
2023-03-27T18:31:30.120Z,9.49
2023-03-27T18:33:57.156Z,9.42
2023-03-27T18:36:24.442Z,9.38
2023-03-27T18:38:52.144Z,9.39
2023-03-27T18:41:19.188Z,9.35
2023-03-27T18:43:46.216Z,9.34
2023-03-27T18:46:17.015Z,9.42
2023-03-27T18:48:46.195Z,9.47
2023-03-27T18:51:13.541Z,9.47
2023-03-27T18:53:41.189Z,9.50
2023-03-27T18:56:08.351Z,9.38
2023-03-27T18:58:36.185Z,9.22
2023-03-27T19:01:09.107Z,9.15
2023-03-27T19:03:37.585Z,9.12
2023-03-27T19:06:07.218Z,9.10
2023-03-27T19:08:37.676Z,9.08
2023-03-27T19:11:06.206Z,9.01
2023-03-27T19:13:51.649Z,8.93
2023-03-27T19:16:30.634Z,8.88
2023-03-27T19:19:16.567Z,8.83
2023-03-27T19:21:53.383Z,8.83
2023-03-27T19:24:40.574Z,8.78
2023-03-27T19:27:08.057Z,8.74
2023-03-27T19:29:51.783Z,8.73
2023-03-27T19:32:18.835Z,8.73
2023-03-27T19:34:46.055Z,8.69
2023-03-27T19:37:13.054Z,8.72
2023-03-27T19:39:40.338Z,8.66
2023-03-27T19:42:07.657Z,8.62
2023-03-27T19:44:38.137Z,8.63
2023-03-27T19:47:07.744Z,8.64
2023-03-27T19:49:34.903Z,8.64
2023-03-27T19:52:20.963Z,8.61
2023-03-27T19:54:48.003Z,8.59
2023-03-27T19:57:15.037Z,8.62
2023-03-27T19:59:42.157Z,8.60
2023-03-27T20:02:12.388Z,8.60
2023-03-27T20:04:39.876Z,8.55
2023-03-27T20:07:10.132Z,8.54
2023-03-27T20:09:37.694Z,8.53
2023-03-27T20:12:06.063Z,8.54
2023-03-27T20:14:33.080Z,8.49
2023-03-27T20:17:00.252Z,8.44
2023-03-27T20:19:30.610Z,8.36
2023-03-27T20:22:00.340Z,8.29
2023-03-27T20:24:29.037Z,8.27
2023-03-27T20:26:59.394Z,8.15
2023-03-27T20:29:26.702Z,8.10
2023-03-27T20:31:54.068Z,8.11
2023-03-27T20:34:22.796Z,8.08
2023-03-27T20:36:53.366Z,8.15
2023-03-27T20:39:54.256Z,8.18
2023-03-27T20:42:23.311Z,8.19
2023-03-27T20:44:58.969Z,8.16
2023-03-27T20:47:26.125Z,8.13
2023-03-27T20:49:53.212Z,8.11
2023-03-27T20:52:22.884Z,8.13
2023-03-27T20:54:50.886Z,8.14
2023-03-27T20:57:21.305Z,8.21
2023-03-27T20:59:48.658Z,8.24
2023-03-27T21:02:17.473Z,8.26
2023-03-27T21:04:44.849Z,8.29
2023-03-27T21:07:12.003Z,8.43
2023-03-27T21:09:39.174Z,8.48
2023-03-27T21:12:07.060Z,8.59
2023-03-27T21:14:34.508Z,8.75
2023-03-27T21:17:01.766Z,8.79
2023-03-27T21:19:28.851Z,8.86
2023-03-27T21:21:56.097Z,8.93
2023-03-27T21:24:23.153Z,8.99
2023-03-27T21:26:50.149Z,8.86
2023-03-27T21:29:17.392Z,8.68
2023-03-27T21:31:44.477Z,8.48
2023-03-27T21:34:11.560Z,8.47
2023-03-27T21:36:38.913Z,8.55
2023-03-27T21:39:06.103Z,8.50
2023-03-27T21:41:33.272Z,8.50
2023-03-27T21:44:00.427Z,8.43
2023-03-27T21:46:27.426Z,8.43
2023-03-27T21:48:54.513Z,8.56
2023-03-27T21:51:21.529Z,8.43
2023-03-27T21:53:48.731Z,8.32
2023-03-27T21:56:15.827Z,8.53
2023-03-27T21:58:42.792Z,8.47
2023-03-27T22:01:10.011Z,8.50
2023-03-27T22:03:37.060Z,8.40
2023-03-27T22:06:11.506Z,8.41
2023-03-27T22:08:40.639Z,8.46
2023-03-27T22:11:07.687Z,8.49
2023-03-27T22:13:36.679Z,8.42
2023-03-27T22:16:12.611Z,8.37
2023-03-27T22:18:40.868Z,8.28
2023-03-27T22:21:16.774Z,8.32
2023-03-27T22:23:44.215Z,8.35
2023-03-27T22:26:11.640Z,8.19
2023-03-27T22:28:38.715Z,8.26
2023-03-27T22:31:06.060Z,8.13
2023-03-27T22:33:33.299Z,8.19
2023-03-27T22:36:00.586Z,8.21
2023-03-27T22:38:31.664Z,8.12
2023-03-27T22:40:59.808Z,7.94
2023-03-27T22:43:28.991Z,7.87
2023-03-27T22:45:56.256Z,7.74
2023-03-27T22:48:23.472Z,7.81
2023-03-27T22:50:57.801Z,7.82
2023-03-27T22:53:25.794Z,7.72
2023-03-27T22:55:54.666Z,7.64
2023-03-27T22:58:22.381Z,7.52
2023-03-27T23:00:51.120Z,7.51
2023-03-27T23:03:19.206Z,7.56
2023-03-27T23:05:49.171Z,7.56
2023-03-27T23:08:17.585Z,7.52
2023-03-27T23:10:45.414Z,7.43
2023-03-27T23:13:13.236Z,7.38
2023-03-27T23:15:40.314Z,7.46
2023-03-27T23:18:07.417Z,7.45
2023-03-27T23:20:34.425Z,7.48
2023-03-27T23:23:01.555Z,7.40
2023-03-27T23:25:28.513Z,7.34
2023-03-27T23:27:55.467Z,7.29
2023-03-27T23:30:22.471Z,7.35
2023-03-27T23:32:49.560Z,7.41
2023-03-27T23:35:17.163Z,7.39
2023-03-27T23:37:44.116Z,7.25
2023-03-27T23:40:11.218Z,7.05
2023-03-27T23:42:38.240Z,6.91
2023-03-27T23:45:05.955Z,6.88
2023-03-27T23:47:32.993Z,6.82
2023-03-27T23:49:59.954Z,6.76
2023-03-27T23:52:26.973Z,6.62
2023-03-27T23:54:53.998Z,6.51
2023-03-27T23:57:21.247Z,6.58
2023-03-27T23:59:48.244Z,6.59
